sensor_id;sensor_type;location;lat;lon;timestamp;P1;durP1;ratioP1;P2;durP2;ratioP2
16063;SDS011;8136;53.172;8.256;2023-04-30T03:37:26;8.10;;;4.20;;
16063;SDS011;8136;53.172;8.256;2023-04-30T03:39:55;10.70;;;4.00;;
16063;SDS011;8136;53.172;8.256;2023-04-30T03:42:28;6.97;;;3.73;;
16063;SDS011;8136;53.172;8.256;2023-04-30T03:45:18;8.50;;;3.83;;
16063;SDS011;8136;53.172;8.256;2023-04-30T03:47:52;7.93;;;4.17;;
16063;SDS011;8136;53.172;8.256;2023-04-30T03:50:24;5.10;;;3.70;;
16063;SDS011;8136;53.172;8.256;2023-04-30T03:53:00;7.23;;;3.47;;
16063;SDS011;8136;53.172;8.256;2023-04-30T03:55:27;7.80;;;3.77;;
16063;SDS011;8136;53.172;8.256;2023-04-30T03:58:13;9.03;;;3.60;;
16063;SDS011;8136;53.172;8.256;2023-04-30T04:00:54;8.93;;;3.60;;
16063;SDS011;8136;53.172;8.256;2023-04-30T04:03:32;5.80;;;3.87;;
16063;SDS011;8136;53.172;8.256;2023-04-30T04:06:00;4.73;;;3.60;;
16063;SDS011;8136;53.172;8.256;2023-04-30T04:08:38;9.63;;;3.30;;
16063;SDS011;8136;53.172;8.256;2023-04-30T04:11:07;7.63;;;3.70;;
16063;SDS011;8136;53.172;8.256;2023-04-30T04:13:34;5.50;;;4.03;;
16063;SDS011;8136;53.172;8.256;2023-04-30T04:16:00;5.47;;;3.30;;
16063;SDS011;8136;53.172;8.256;2023-04-30T04:18:27;7.50;;;3.70;;
16063;SDS011;8136;53.172;8.256;2023-04-30T04:21:02;7.63;;;4.00;;
16063;SDS011;8136;53.172;8.256;2023-04-30T04:23:34;5.87;;;4.37;;
16063;SDS011;8136;53.172;8.256;2023-04-30T04:26:04;7.00;;;4.33;;
16063;SDS011;8136;53.172;8.256;2023-04-30T04:29:08;7.43;;;3.90;;
16063;SDS011;8136;53.172;8.256;2023-04-30T04:31:58;6.97;;;3.70;;
16063;SDS011;8136;53.172;8.256;2023-04-30T04:34:31;4.77;;;3.23;;
16063;SDS011;8136;53.172;8.256;2023-04-30T04:36:58;3.77;;;3.37;;
16063;SDS011;8136;53.172;8.256;2023-04-30T04:39:25;6.13;;;3.63;;
16063;SDS011;8136;53.172;8.256;2023-04-30T04:41:53;6.40;;;3.93;;
16063;SDS011;8136;53.172;8.256;2023-04-30T04:44:20;7.03;;;3.83;;
16063;SDS011;8136;53.172;8.256;2023-04-30T04:46:47;6.63;;;4.10;;
16063;SDS011;8136;53.172;8.256;2023-04-30T04:49:25;11.60;;;4.37;;
16063;SDS011;8136;53.172;8.256;2023-04-30T04:51:54;8.40;;;4.77;;
16063;SDS011;8136;53.172;8.256;2023-04-30T04:54:21;11.33;;;4.13;;
16063;SDS011;8136;53.172;8.256;2023-04-30T04:56:47;8.23;;;3.87;;
16063;SDS011;8136;53.172;8.256;2023-04-30T04:59:17;9.10;;;5.10;;
16063;SDS011;8136;53.172;8.256;2023-04-30T05:01:43;9.27;;;4.33;;
16063;SDS011;8136;53.172;8.256;2023-04-30T05:04:10;6.63;;;4.33;;
16063;SDS011;8136;53.172;8.256;2023-04-30T05:06:38;9.00;;;3.97;;
16063;SDS011;8136;53.172;8.256;2023-04-30T05:09:04;9.10;;;4.10;;
16063;SDS011;8136;53.172;8.256;2023-04-30T05:11:33;7.37;;;3.67;;
16063;SDS011;8136;53.172;8.256;2023-04-30T05:14:00;5.67;;;4.03;;
16063;SDS011;8136;53.172;8.256;2023-04-30T05:16:36;8.03;;;4.00;;
16063;SDS011;8136;53.172;8.256;2023-04-30T05:19:06;6.57;;;4.20;;
16063;SDS011;8136;53.172;8.256;2023-04-30T05:25:41;7.83;;;4.50;;
16063;SDS011;8136;53.172;8.256;2023-04-30T05:34:57;7.23;;;4.17;;
16063;SDS011;8136;53.172;8.256;2023-04-30T05:37:27;12.17;;;4.93;;
16063;SDS011;8136;53.172;8.256;2023-04-30T05:40:09;10.23;;;4.10;;
16063;SDS011;8136;53.172;8.256;2023-04-30T05:43:22;6.97;;;4.23;;
16063;SDS011;8136;53.172;8.256;2023-04-30T05:46:09;7.27;;;4.80;;
16063;SDS011;8136;53.172;8.256;2023-04-30T05:48:57;7.33;;;4.43;;
16063;SDS011;8136;53.172;8.256;2023-04-30T05:51:26;9.10;;;4.90;;
16063;SDS011;8136;53.172;8.256;2023-04-30T05:54:24;7.17;;;4.30;;
16063;SDS011;8136;53.172;8.256;2023-04-30T05:57:21;6.03;;;4.33;;
16063;SDS011;8136;53.172;8.256;2023-04-30T06:00:28;7.10;;;3.90;;
16063;SDS011;8136;53.172;8.256;2023-04-30T06:03:18;6.20;;;4.10;;
16063;SDS011;8136;53.172;8.256;2023-04-30T06:16:57;10.73;;;3.47;;
16063;SDS011;8136;53.172;8.256;2023-04-30T06:19:24;6.07;;;2.67;;
16063;SDS011;8136;53.172;8.256;2023-04-30T06:21:52;6.90;;;3.50;;
16063;SDS011;8136;53.172;8.256;2023-04-30T06:24:19;4.80;;;3.07;;
16063;SDS011;8136;53.172;8.256;2023-04-30T06:26:46;8.33;;;3.03;;
16063;SDS011;8136;53.172;8.256;2023-04-30T06:29:13;8.60;;;3.10;;
16063;SDS011;8136;53.172;8.256;2023-04-30T06:31:46;12.83;;;3.50;;
16063;SDS011;8136;53.172;8.256;2023-04-30T06:34:21;6.70;;;3.10;;
16063;SDS011;8136;53.172;8.256;2023-04-30T06:36:52;8.17;;;3.70;;
16063;SDS011;8136;53.172;8.256;2023-04-30T06:39:19;6.40;;;3.10;;
16063;SDS011;8136;53.172;8.256;2023-04-30T06:41:46;8.37;;;3.17;;
16063;SDS011;8136;53.172;8.256;2023-04-30T06:44:13;8.87;;;3.43;;
16063;SDS011;8136;53.172;8.256;2023-04-30T06:46:40;6.17;;;3.30;;
16063;SDS011;8136;53.172;8.256;2023-04-30T06:49:07;10.43;;;3.97;;
16063;SDS011;8136;53.172;8.256;2023-04-30T06:51:35;9.20;;;4.00;;
16063;SDS011;8136;53.172;8.256;2023-04-30T06:54:02;9.50;;;3.33;;
16063;SDS011;8136;53.172;8.256;2023-04-30T06:56:28;7.53;;;3.20;;
16063;SDS011;8136;53.172;8.256;2023-04-30T06:58:55;8.70;;;3.73;;
16063;SDS011;8136;53.172;8.256;2023-04-30T07:01:22;8.23;;;3.53;;
16063;SDS011;8136;53.172;8.256;2023-04-30T07:03:49;7.33;;;3.20;;
16063;SDS011;8136;53.172;8.256;2023-04-30T07:06:16;5.70;;;3.37;;
16063;SDS011;8136;53.172;8.256;2023-04-30T07:08:45;4.33;;;2.20;;
16063;SDS011;8136;53.172;8.256;2023-04-30T07:11:12;6.60;;;2.70;;
16063;SDS011;8136;53.172;8.256;2023-04-30T07:13:39;4.97;;;2.47;;
16063;SDS011;8136;53.172;8.256;2023-04-30T07:16:06;5.80;;;2.10;;
16063;SDS011;8136;53.172;8.256;2023-04-30T07:18:34;7.93;;;2.90;;
16063;SDS011;8136;53.172;8.256;2023-04-30T07:21:01;6.60;;;2.57;;
16063;SDS011;8136;53.172;8.256;2023-04-30T07:23:28;4.60;;;2.67;;
16063;SDS011;8136;53.172;8.256;2023-04-30T07:25:57;9.47;;;2.43;;
16063;SDS011;8136;53.172;8.256;2023-04-30T07:28:24;6.10;;;2.83;;
16063;SDS011;8136;53.172;8.256;2023-04-30T07:30:50;7.20;;;2.43;;
16063;SDS011;8136;53.172;8.256;2023-04-30T07:33:17;3.60;;;1.80;;
16063;SDS011;8136;53.172;8.256;2023-04-30T07:35:44;4.47;;;2.33;;
16063;SDS011;8136;53.172;8.256;2023-04-30T07:38:11;7.00;;;2.73;;
16063;SDS011;8136;53.172;8.256;2023-04-30T07:40:37;9.30;;;2.90;;
16063;SDS011;8136;53.172;8.256;2023-04-30T07:43:06;5.53;;;2.33;;
16063;SDS011;8136;53.172;8.256;2023-04-30T07:45:32;4.23;;;2.43;;
16063;SDS011;8136;53.172;8.256;2023-04-30T07:48:00;5.97;;;2.33;;
16063;SDS011;8136;53.172;8.256;2023-04-30T07:50:29;5.40;;;2.27;;
16063;SDS011;8136;53.172;8.256;2023-04-30T07:52:58;5.97;;;2.47;;
16063;SDS011;8136;53.172;8.256;2023-04-30T07:55:26;7.87;;;2.73;;
16063;SDS011;8136;53.172;8.256;2023-04-30T07:57:54;8.87;;;2.03;;
16063;SDS011;8136;53.172;8.256;2023-04-30T08:00:22;7.20;;;2.63;;
16063;SDS011;8136;53.172;8.256;2023-04-30T08:02:50;5.03;;;2.20;;
16063;SDS011;8136;53.172;8.256;2023-04-30T08:05:18;8.33;;;2.60;;
16063;SDS011;8136;53.172;8.256;2023-04-30T08:07:45;7.17;;;2.03;;
16063;SDS011;8136;53.172;8.256;2023-04-30T08:10:12;9.10;;;2.73;;
16063;SDS011;8136;53.172;8.256;2023-04-30T08:12:40;5.07;;;2.20;;
16063;SDS011;8136;53.172;8.256;2023-04-30T08:15:15;6.37;;;2.23;;
16063;SDS011;8136;53.172;8.256;2023-04-30T08:17:56;6.23;;;2.27;;
16063;SDS011;8136;53.172;8.256;2023-04-30T08:20:23;5.47;;;2.30;;
16063;SDS011;8136;53.172;8.256;2023-04-30T08:22:51;6.10;;;2.40;;
16063;SDS011;8136;53.172;8.256;2023-04-30T08:25:18;7.93;;;2.43;;
16063;SDS011;8136;53.172;8.256;2023-04-30T08:27:45;3.83;;;2.80;;
16063;SDS011;8136;53.172;8.256;2023-04-30T08:30:12;6.00;;;2.23;;
16063;SDS011;8136;53.172;8.256;2023-04-30T08:32:39;6.23;;;2.20;;
16063;SDS011;8136;53.172;8.256;2023-04-30T08:35:10;4.10;;;2.10;;
16063;SDS011;8136;53.172;8.256;2023-04-30T08:37:38;7.00;;;2.47;;
16063;SDS011;8136;53.172;8.256;2023-04-30T08:40:05;10.23;;;2.60;;
16063;SDS011;8136;53.172;8.256;2023-04-30T08:42:40;6.07;;;2.20;;
16063;SDS011;8136;53.172;8.256;2023-04-30T08:45:13;10.67;;;2.50;;
16063;SDS011;8136;53.172;8.256;2023-04-30T08:47:47;6.77;;;2.57;;
16063;SDS011;8136;53.172;8.256;2023-04-30T08:50:17;6.20;;;2.67;;
16063;SDS011;8136;53.172;8.256;2023-04-30T08:52:45;3.07;;;2.07;;
16063;SDS011;8136;53.172;8.256;2023-04-30T08:55:14;6.13;;;2.20;;
16063;SDS011;8136;53.172;8.256;2023-04-30T08:57:41;5.47;;;2.53;;
16063;SDS011;8136;53.172;8.256;2023-04-30T09:00:09;5.07;;;2.23;;
16063;SDS011;8136;53.172;8.256;2023-04-30T09:02:38;9.60;;;2.50;;
16063;SDS011;8136;53.172;8.256;2023-04-30T09:05:08;5.40;;;2.13;;
16063;SDS011;8136;53.172;8.256;2023-04-30T09:07:38;4.63;;;2.10;;
16063;SDS011;8136;53.172;8.256;2023-04-30T09:10:13;4.43;;;2.20;;
16063;SDS011;8136;53.172;8.256;2023-04-30T09:12:43;5.90;;;2.20;;
16063;SDS011;8136;53.172;8.256;2023-04-30T09:15:10;4.03;;;2.23;;
16063;SDS011;8136;53.172;8.256;2023-04-30T09:17:37;5.53;;;2.70;;
16063;SDS011;8136;53.172;8.256;2023-04-30T09:20:06;5.03;;;2.20;;
16063;SDS011;8136;53.172;8.256;2023-04-30T09:22:41;6.63;;;2.47;;
16063;SDS011;8136;53.172;8.256;2023-04-30T09:25:08;3.77;;;2.10;;
16063;SDS011;8136;53.172;8.256;2023-04-30T09:30:25;5.30;;;2.43;;
16063;SDS011;8136;53.172;8.256;2023-04-30T09:32:56;4.70;;;2.37;;
16063;SDS011;8136;53.172;8.256;2023-04-30T09:38:28;5.00;;;1.90;;
16063;SDS011;8136;53.172;8.256;2023-04-30T09:40:57;5.23;;;2.27;;
16063;SDS011;8136;53.172;8.256;2023-04-30T09:43:25;5.37;;;2.50;;
16063;SDS011;8136;53.172;8.256;2023-04-30T09:45:52;7.27;;;2.30;;
16063;SDS011;8136;53.172;8.256;2023-04-30T09:48:20;4.90;;;2.30;;
16063;SDS011;8136;53.172;8.256;2023-04-30T09:50:47;5.40;;;2.17;;
16063;SDS011;8136;53.172;8.256;2023-04-30T09:56:35;7.80;;;2.30;;
16063;SDS011;8136;53.172;8.256;2023-04-30T09:59:04;7.73;;;2.40;;
16063;SDS011;8136;53.172;8.256;2023-04-30T10:05:07;7.13;;;2.57;;
16063;SDS011;8136;53.172;8.256;2023-04-30T10:10:56;3.03;;;1.90;;
16063;SDS011;8136;53.172;8.256;2023-04-30T10:13:32;5.53;;;2.30;;
16063;SDS011;8136;53.172;8.256;2023-04-30T10:16:10;4.47;;;2.30;;
16063;SDS011;8136;53.172;8.256;2023-04-30T10:18:42;5.20;;;2.40;;
16063;SDS011;8136;53.172;8.256;2023-04-30T10:21:14;4.27;;;1.93;;
16063;SDS011;8136;53.172;8.256;2023-04-30T10:23:53;6.40;;;2.60;;
16063;SDS011;8136;53.172;8.256;2023-04-30T10:26:27;5.07;;;2.20;;
16063;SDS011;8136;53.172;8.256;2023-04-30T10:31:53;7.37;;;2.00;;
16063;SDS011;8136;53.172;8.256;2023-04-30T10:34:37;6.57;;;2.23;;
16063;SDS011;8136;53.172;8.256;2023-04-30T10:39:58;4.00;;;1.93;;
16063;SDS011;8136;53.172;8.256;2023-04-30T10:42:26;4.30;;;1.77;;
16063;SDS011;8136;53.172;8.256;2023-04-30T10:44:54;5.63;;;1.90;;
16063;SDS011;8136;53.172;8.256;2023-04-30T10:47:26;7.63;;;2.03;;
16063;SDS011;8136;53.172;8.256;2023-04-30T10:50:00;4.83;;;1.80;;
16063;SDS011;8136;53.172;8.256;2023-04-30T10:52:28;3.70;;;1.90;;
16063;SDS011;8136;53.172;8.256;2023-04-30T10:54:55;5.53;;;2.40;;
16063;SDS011;8136;53.172;8.256;2023-04-30T10:57:22;4.63;;;2.00;;
16063;SDS011;8136;53.172;8.256;2023-04-30T11:02:44;3.17;;;1.80;;
16063;SDS011;8136;53.172;8.256;2023-04-30T11:05:13;5.37;;;1.70;;
16063;SDS011;8136;53.172;8.256;2023-04-30T11:15:42;5.13;;;2.20;;
16063;SDS011;8136;53.172;8.256;2023-04-30T11:25:05;4.33;;;2.03;;
16063;SDS011;8136;53.172;8.256;2023-04-30T11:27:42;5.00;;;1.83;;
16063;SDS011;8136;53.172;8.256;2023-04-30T11:33:57;3.67;;;1.60;;
16063;SDS011;8136;53.172;8.256;2023-04-30T11:37:15;5.23;;;1.77;;
16063;SDS011;8136;53.172;8.256;2023-04-30T11:39:59;4.67;;;2.27;;
16063;SDS011;8136;53.172;8.256;2023-04-30T11:42:44;4.40;;;1.80;;
16063;SDS011;8136;53.172;8.256;2023-04-30T11:58:51;4.20;;;1.70;;
16063;SDS011;8136;53.172;8.256;2023-04-30T12:01:26;5.17;;;2.03;;
16063;SDS011;8136;53.172;8.256;2023-04-30T12:04:05;2.60;;;1.47;;
16063;SDS011;8136;53.172;8.256;2023-04-30T12:12:25;6.33;;;1.93;;
16063;SDS011;8136;53.172;8.256;2023-04-30T12:14:53;2.13;;;1.43;;
16063;SDS011;8136;53.172;8.256;2023-04-30T12:17:30;3.30;;;1.40;;
16063;SDS011;8136;53.172;8.256;2023-04-30T12:19:57;2.70;;;1.50;;
16063;SDS011;8136;53.172;8.256;2023-04-30T12:22:24;4.73;;;1.77;;
16063;SDS011;8136;53.172;8.256;2023-04-30T12:24:51;2.43;;;1.50;;
16063;SDS011;8136;53.172;8.256;2023-04-30T12:27:20;5.20;;;1.90;;
16063;SDS011;8136;53.172;8.256;2023-04-30T12:29:47;3.27;;;1.47;;
16063;SDS011;8136;53.172;8.256;2023-04-30T12:32:17;2.13;;;1.50;;
16063;SDS011;8136;53.172;8.256;2023-04-30T12:34:44;2.77;;;1.50;;
16063;SDS011;8136;53.172;8.256;2023-04-30T12:37:13;2.97;;;1.37;;
16063;SDS011;8136;53.172;8.256;2023-04-30T12:39:42;4.63;;;1.67;;
16063;SDS011;8136;53.172;8.256;2023-04-30T12:42:09;3.67;;;1.40;;
16063;SDS011;8136;53.172;8.256;2023-04-30T12:44:41;4.03;;;1.50;;
16063;SDS011;8136;53.172;8.256;2023-04-30T12:47:09;4.13;;;1.47;;
16063;SDS011;8136;53.172;8.256;2023-04-30T12:49:37;3.43;;;1.33;;
16063;SDS011;8136;53.172;8.256;2023-04-30T12:52:04;3.23;;;1.43;;
16063;SDS011;8136;53.172;8.256;2023-04-30T12:54:33;4.00;;;1.23;;
16063;SDS011;8136;53.172;8.256;2023-04-30T12:57:01;4.20;;;1.47;;
16063;SDS011;8136;53.172;8.256;2023-04-30T12:59:32;5.17;;;1.60;;
16063;SDS011;8136;53.172;8.256;2023-04-30T13:02:09;4.07;;;1.53;;
16063;SDS011;8136;53.172;8.256;2023-04-30T13:04:39;3.20;;;1.53;;
16063;SDS011;8136;53.172;8.256;2023-04-30T13:07:07;2.70;;;1.40;;
16063;SDS011;8136;53.172;8.256;2023-04-30T13:09:34;5.53;;;1.43;;
16063;SDS011;8136;53.172;8.256;2023-04-30T13:12:02;3.17;;;1.60;;
16063;SDS011;8136;53.172;8.256;2023-04-30T13:14:30;4.07;;;1.53;;
16063;SDS011;8136;53.172;8.256;2023-04-30T13:16:57;3.73;;;1.23;;
16063;SDS011;8136;53.172;8.256;2023-04-30T13:19:26;2.87;;;1.30;;
16063;SDS011;8136;53.172;8.256;2023-04-30T13:21:55;4.13;;;1.77;;
16063;SDS011;8136;53.172;8.256;2023-04-30T13:24:23;4.83;;;1.90;;
16063;SDS011;8136;53.172;8.256;2023-04-30T13:26:50;4.40;;;1.27;;
16063;SDS011;8136;53.172;8.256;2023-04-30T13:29:16;2.80;;;1.50;;
16063;SDS011;8136;53.172;8.256;2023-04-30T13:31:44;2.03;;;1.20;;
16063;SDS011;8136;53.172;8.256;2023-04-30T13:34:12;2.03;;;1.23;;
16063;SDS011;8136;53.172;8.256;2023-04-30T13:36:39;3.53;;;1.20;;
16063;SDS011;8136;53.172;8.256;2023-04-30T13:39:08;2.97;;;1.50;;
16063;SDS011;8136;53.172;8.256;2023-04-30T13:41:34;3.20;;;1.40;;
16063;SDS011;8136;53.172;8.256;2023-04-30T13:44:01;2.43;;;1.30;;
16063;SDS011;8136;53.172;8.256;2023-04-30T13:46:28;1.60;;;1.10;;
16063;SDS011;8136;53.172;8.256;2023-04-30T13:48:55;2.10;;;1.53;;
16063;SDS011;8136;53.172;8.256;2023-04-30T13:51:22;3.23;;;1.20;;
16063;SDS011;8136;53.172;8.256;2023-04-30T13:53:49;2.80;;;1.20;;
16063;SDS011;8136;53.172;8.256;2023-04-30T13:56:17;3.53;;;1.60;;
16063;SDS011;8136;53.172;8.256;2023-04-30T13:58:45;3.37;;;1.30;;
16063;SDS011;8136;53.172;8.256;2023-04-30T14:01:11;3.20;;;1.20;;
16063;SDS011;8136;53.172;8.256;2023-04-30T14:03:38;2.33;;;1.30;;
16063;SDS011;8136;53.172;8.256;2023-04-30T14:06:05;3.67;;;1.23;;
16063;SDS011;8136;53.172;8.256;2023-04-30T14:08:33;2.37;;;1.10;;
16063;SDS011;8136;53.172;8.256;2023-04-30T14:11:00;4.77;;;1.23;;
16063;SDS011;8136;53.172;8.256;2023-04-30T14:13:28;5.87;;;1.37;;
16063;SDS011;8136;53.172;8.256;2023-04-30T14:15:55;2.83;;;1.10;;
16063;SDS011;8136;53.172;8.256;2023-04-30T14:18:22;2.67;;;1.20;;
16063;SDS011;8136;53.172;8.256;2023-04-30T14:20:49;4.47;;;1.20;;
16063;SDS011;8136;53.172;8.256;2023-04-30T14:23:18;1.40;;;0.90;;
16063;SDS011;8136;53.172;8.256;2023-04-30T14:25:45;2.37;;;1.00;;
16063;SDS011;8136;53.172;8.256;2023-04-30T14:28:11;3.30;;;1.00;;
16063;SDS011;8136;53.172;8.256;2023-04-30T14:30:49;2.90;;;0.90;;
16063;SDS011;8136;53.172;8.256;2023-04-30T14:33:22;2.00;;;1.00;;
16063;SDS011;8136;53.172;8.256;2023-04-30T14:35:48;3.13;;;1.10;;
16063;SDS011;8136;53.172;8.256;2023-04-30T14:38:15;2.87;;;1.00;;
16063;SDS011;8136;53.172;8.256;2023-04-30T14:40:45;1.83;;;0.90;;
16063;SDS011;8136;53.172;8.256;2023-04-30T14:43:12;1.97;;;0.90;;
16063;SDS011;8136;53.172;8.256;2023-04-30T14:45:42;1.10;;;0.70;;
16063;SDS011;8136;53.172;8.256;2023-04-30T14:48:12;4.07;;;1.10;;
16063;SDS011;8136;53.172;8.256;2023-04-30T14:50:39;3.23;;;1.00;;
16063;SDS011;8136;53.172;8.256;2023-04-30T14:53:06;2.08;;;0.70;;
16063;SDS011;8136;53.172;8.256;2023-04-30T14:55:35;3.90;;;1.33;;
16063;SDS011;8136;53.172;8.256;2023-04-30T14:58:04;2.50;;;1.00;;
16063;SDS011;8136;53.172;8.256;2023-04-30T15:00:33;2.13;;;0.70;;
16063;SDS011;8136;53.172;8.256;2023-04-30T15:03:02;1.13;;;0.55;;
16063;SDS011;8136;53.172;8.256;2023-04-30T15:05:44;1.35;;;0.63;;
16063;SDS011;8136;53.172;8.256;2023-04-30T15:08:10;1.77;;;0.73;;
16063;SDS011;8136;53.172;8.256;2023-04-30T15:10:40;2.40;;;0.70;;
16063;SDS011;8136;53.172;8.256;2023-04-30T15:13:09;1.48;;;1.02;;
16063;SDS011;8136;53.172;8.256;2023-04-30T15:15:38;3.30;;;1.13;;
16063;SDS011;8136;53.172;8.256;2023-04-30T15:18:17;1.98;;;0.95;;
16063;SDS011;8136;53.172;8.256;2023-04-30T15:20:51;3.08;;;0.90;;
16063;SDS011;8136;53.172;8.256;2023-04-30T15:23:32;2.33;;;0.95;;
16063;SDS011;8136;53.172;8.256;2023-04-30T15:26:02;1.48;;;0.80;;
16063;SDS011;8136;53.172;8.256;2023-04-30T15:28:29;1.13;;;0.73;;
16063;SDS011;8136;53.172;8.256;2023-04-30T15:31:00;3.63;;;0.93;;
16063;SDS011;8136;53.172;8.256;2023-04-30T15:33:28;1.50;;;0.95;;
16063;SDS011;8136;53.172;8.256;2023-04-30T15:35:58;2.10;;;0.80;;
16063;SDS011;8136;53.172;8.256;2023-04-30T15:38:26;1.67;;;0.75;;
16063;SDS011;8136;53.172;8.256;2023-04-30T15:40:56;1.38;;;0.52;;
16063;SDS011;8136;53.172;8.256;2023-04-30T15:43:23;0.60;;;0.50;;
16063;SDS011;8136;53.172;8.256;2023-04-30T15:45:50;2.35;;;0.82;;
16063;SDS011;8136;53.172;8.256;2023-04-30T15:48:17;2.03;;;0.90;;
16063;SDS011;8136;53.172;8.256;2023-04-30T15:50:44;1.15;;;0.63;;
16063;SDS011;8136;53.172;8.256;2023-04-30T15:53:12;1.63;;;0.77;;
16063;SDS011;8136;53.172;8.256;2023-04-30T15:55:39;1.20;;;0.65;;
16063;SDS011;8136;53.172;8.256;2023-04-30T15:58:05;1.50;;;0.70;;
16063;SDS011;8136;53.172;8.256;2023-04-30T16:00:35;2.42;;;0.80;;
16063;SDS011;8136;53.172;8.256;2023-04-30T16:03:02;1.02;;;0.75;;
16063;SDS011;8136;53.172;8.256;2023-04-30T16:05:29;3.50;;;0.88;;
16063;SDS011;8136;53.172;8.256;2023-04-30T16:07:57;2.08;;;0.75;;
16063;SDS011;8136;53.172;8.256;2023-04-30T16:10:26;2.00;;;0.73;;
16063;SDS011;8136;53.172;8.256;2023-04-30T16:12:54;2.78;;;1.15;;
16063;SDS011;8136;53.172;8.256;2023-04-30T16:15:20;1.27;;;0.80;;
16063;SDS011;8136;53.172;8.256;2023-04-30T16:17:48;2.65;;;0.95;;
16063;SDS011;8136;53.172;8.256;2023-04-30T16:20:15;2.00;;;1.20;;
16063;SDS011;8136;53.172;8.256;2023-04-30T16:22:42;1.93;;;0.83;;
16063;SDS011;8136;53.172;8.256;2023-04-30T16:25:10;1.43;;;0.80;;
16063;SDS011;8136;53.172;8.256;2023-04-30T16:27:38;3.90;;;1.13;;
16063;SDS011;8136;53.172;8.256;2023-04-30T16:30:06;1.40;;;1.03;;
16063;SDS011;8136;53.172;8.256;2023-04-30T16:32:33;4.30;;;1.50;;
16063;SDS011;8136;53.172;8.256;2023-04-30T16:35:00;2.83;;;1.17;;
16063;SDS011;8136;53.172;8.256;2023-04-30T16:39:57;1.97;;;1.00;;
16063;SDS011;8136;53.172;8.256;2023-04-30T16:42:25;3.17;;;1.30;;
16063;SDS011;8136;53.172;8.256;2023-04-30T16:44:55;1.83;;;1.10;;
16063;SDS011;8136;53.172;8.256;2023-04-30T16:47:31;1.87;;;1.00;;
16063;SDS011;8136;53.172;8.256;2023-04-30T16:49:57;1.70;;;1.20;;
16063;SDS011;8136;53.172;8.256;2023-04-30T16:52:24;2.13;;;0.80;;
16063;SDS011;8136;53.172;8.256;2023-04-30T16:54:52;1.67;;;1.00;;
16063;SDS011;8136;53.172;8.256;2023-04-30T16:57:19;1.33;;;0.90;;
16063;SDS011;8136;53.172;8.256;2023-04-30T16:59:46;2.33;;;1.27;;
16063;SDS011;8136;53.172;8.256;2023-04-30T17:02:14;1.37;;;0.90;;
16063;SDS011;8136;53.172;8.256;2023-04-30T17:04:41;2.00;;;1.10;;
16063;SDS011;8136;53.172;8.256;2023-04-30T17:07:08;2.17;;;1.40;;
16063;SDS011;8136;53.172;8.256;2023-04-30T17:09:36;3.27;;;1.30;;
16063;SDS011;8136;53.172;8.256;2023-04-30T17:12:05;1.47;;;1.13;;
16063;SDS011;8136;53.172;8.256;2023-04-30T17:14:32;1.70;;;1.10;;
16063;SDS011;8136;53.172;8.256;2023-04-30T17:16:59;2.80;;;1.33;;
16063;SDS011;8136;53.172;8.256;2023-04-30T17:19:31;2.87;;;1.40;;
16063;SDS011;8136;53.172;8.256;2023-04-30T17:21:58;3.13;;;1.20;;
16063;SDS011;8136;53.172;8.256;2023-04-30T17:24:25;2.60;;;1.20;;
16063;SDS011;8136;53.172;8.256;2023-04-30T17:26:54;2.80;;;1.60;;
16063;SDS011;8136;53.172;8.256;2023-04-30T17:29:23;4.33;;;1.80;;
16063;SDS011;8136;53.172;8.256;2023-04-30T17:31:50;2.73;;;1.80;;
16063;SDS011;8136;53.172;8.256;2023-04-30T17:34:17;5.30;;;1.70;;
16063;SDS011;8136;53.172;8.256;2023-04-30T17:37:14;1.83;;;1.53;;
16063;SDS011;8136;53.172;8.256;2023-04-30T17:39:43;3.00;;;1.73;;
16063;SDS011;8136;53.172;8.256;2023-04-30T17:42:10;4.80;;;2.00;;
16063;SDS011;8136;53.172;8.256;2023-04-30T17:44:38;4.60;;;2.30;;
16063;SDS011;8136;53.172;8.256;2023-04-30T17:47:06;3.83;;;2.10;;
16063;SDS011;8136;53.172;8.256;2023-04-30T17:49:35;4.33;;;1.83;;
16063;SDS011;8136;53.172;8.256;2023-04-30T17:52:02;3.57;;;2.00;;
16063;SDS011;8136;53.172;8.256;2023-04-30T17:54:32;3.80;;;2.10;;
16063;SDS011;8136;53.172;8.256;2023-04-30T17:57:04;2.83;;;2.00;;
16063;SDS011;8136;53.172;8.256;2023-04-30T17:59:31;4.00;;;1.70;;
16063;SDS011;8136;53.172;8.256;2023-04-30T18:01:59;4.80;;;2.07;;
16063;SDS011;8136;53.172;8.256;2023-04-30T18:04:26;3.23;;;1.70;;
16063;SDS011;8136;53.172;8.256;2023-04-30T18:06:53;8.50;;;2.10;;
16063;SDS011;8136;53.172;8.256;2023-04-30T18:09:23;8.53;;;1.70;;
16063;SDS011;8136;53.172;8.256;2023-04-30T18:11:53;4.77;;;1.63;;
16063;SDS011;8136;53.172;8.256;2023-04-30T18:14:20;5.03;;;1.60;;
16063;SDS011;8136;53.172;8.256;2023-04-30T18:16:47;3.37;;;1.90;;
16063;SDS011;8136;53.172;8.256;2023-04-30T18:19:14;5.23;;;1.87;;
16063;SDS011;8136;53.172;8.256;2023-04-30T18:21:41;3.60;;;1.70;;
16063;SDS011;8136;53.172;8.256;2023-04-30T18:24:08;4.80;;;1.57;;
16063;SDS011;8136;53.172;8.256;2023-04-30T18:26:37;4.83;;;2.10;;
16063;SDS011;8136;53.172;8.256;2023-04-30T18:29:05;5.07;;;1.97;;
16063;SDS011;8136;53.172;8.256;2023-04-30T18:31:32;4.23;;;1.57;;
16063;SDS011;8136;53.172;8.256;2023-04-30T18:34:00;5.90;;;1.70;;
16063;SDS011;8136;53.172;8.256;2023-04-30T18:36:35;5.37;;;1.93;;
16063;SDS011;8136;53.172;8.256;2023-04-30T18:39:10;3.73;;;1.60;;
16063;SDS011;8136;53.172;8.256;2023-04-30T18:44:39;2.40;;;1.83;;
16063;SDS011;8136;53.172;8.256;2023-04-30T18:47:13;3.33;;;2.00;;
16063;SDS011;8136;53.172;8.256;2023-04-30T18:49:43;3.30;;;1.80;;
16063;SDS011;8136;53.172;8.256;2023-04-30T18:52:22;5.00;;;2.70;;
16063;SDS011;8136;53.172;8.256;2023-04-30T18:55:17;5.30;;;2.50;;
16063;SDS011;8136;53.172;8.256;2023-04-30T18:57:52;3.50;;;1.60;;
16063;SDS011;8136;53.172;8.256;2023-04-30T19:03:21;1.80;;;1.30;;
16063;SDS011;8136;53.172;8.256;2023-04-30T19:06:02;4.63;;;1.63;;
16063;SDS011;8136;53.172;8.256;2023-04-30T19:08:33;4.53;;;1.60;;
16063;SDS011;8136;53.172;8.256;2023-04-30T19:13:59;3.30;;;1.57;;
16063;SDS011;8136;53.172;8.256;2023-04-30T19:16:28;1.70;;;1.50;;
16063;SDS011;8136;53.172;8.256;2023-04-30T19:19:03;2.53;;;1.23;;
16063;SDS011;8136;53.172;8.256;2023-04-30T19:22:00;2.67;;;1.23;;
16063;SDS011;8136;53.172;8.256;2023-04-30T19:24:46;2.90;;;1.20;;
16063;SDS011;8136;53.172;8.256;2023-04-30T19:27:13;3.10;;;1.23;;
16063;SDS011;8136;53.172;8.256;2023-04-30T19:29:42;1.40;;;1.07;;
16063;SDS011;8136;53.172;8.256;2023-04-30T19:32:16;2.13;;;1.33;;
16063;SDS011;8136;53.172;8.256;2023-04-30T19:34:43;3.27;;;1.33;;
16063;SDS011;8136;53.172;8.256;2023-04-30T19:37:10;2.87;;;1.30;;
16063;SDS011;8136;53.172;8.256;2023-04-30T19:39:38;1.60;;;1.20;;
16063;SDS011;8136;53.172;8.256;2023-04-30T19:42:06;3.10;;;1.60;;
16063;SDS011;8136;53.172;8.256;2023-04-30T19:44:32;3.57;;;1.70;;
16063;SDS011;8136;53.172;8.256;2023-04-30T19:47:00;2.80;;;1.70;;
16063;SDS011;8136;53.172;8.256;2023-04-30T19:49:28;3.70;;;1.87;;
16063;SDS011;8136;53.172;8.256;2023-04-30T19:51:57;2.87;;;2.00;;
16063;SDS011;8136;53.172;8.256;2023-04-30T19:54:23;2.27;;;1.83;;
16063;SDS011;8136;53.172;8.256;2023-04-30T19:56:50;5.47;;;2.67;;
16063;SDS011;8136;53.172;8.256;2023-04-30T19:59:19;4.33;;;2.93;;
16063;SDS011;8136;53.172;8.256;2023-04-30T20:01:46;6.70;;;4.23;;
16063;SDS011;8136;53.172;8.256;2023-04-30T20:04:13;4.00;;;2.83;;
16063;SDS011;8136;53.172;8.256;2023-04-30T20:06:41;4.53;;;2.60;;
16063;SDS011;8136;53.172;8.256;2023-04-30T20:09:08;4.57;;;2.70;;
16063;SDS011;8136;53.172;8.256;2023-04-30T20:11:35;8.07;;;3.53;;
16063;SDS011;8136;53.172;8.256;2023-04-30T20:14:02;3.53;;;2.70;;
16063;SDS011;8136;53.172;8.256;2023-04-30T20:16:29;4.07;;;2.77;;
16063;SDS011;8136;53.172;8.256;2023-04-30T20:18:57;2.93;;;2.23;;
16063;SDS011;8136;53.172;8.256;2023-04-30T20:21:24;3.87;;;2.80;;
16063;SDS011;8136;53.172;8.256;2023-04-30T20:23:54;6.30;;;3.10;;
16063;SDS011;8136;53.172;8.256;2023-04-30T20:26:21;4.93;;;2.60;;
16063;SDS011;8136;53.172;8.256;2023-04-30T20:28:49;4.83;;;2.87;;
16063;SDS011;8136;53.172;8.256;2023-04-30T20:31:16;5.83;;;2.40;;